sensor_id;sensor_type;location;lat;lon;timestamp;P1;durP1;ratioP1;P2;durP2;ratioP2
21032;SDS011;10675;47.976;7.824;2022-11-11T00:00:47;2.57;;;1.20;;
21032;SDS011;10675;47.976;7.824;2022-11-11T00:03:13;1.93;;;1.53;;
21032;SDS011;10675;47.976;7.824;2022-11-11T00:05:39;1.50;;;1.20;;
21032;SDS011;10675;47.976;7.824;2022-11-11T00:08:05;4.20;;;1.50;;
21032;SDS011;10675;47.976;7.824;2022-11-11T00:10:31;1.57;;;1.47;;
21032;SDS011;10675;47.976;7.824;2022-11-11T00:12:57;1.50;;;1.40;;
21032;SDS011;10675;47.976;7.824;2022-11-11T00:15:27;2.53;;;1.17;;
21032;SDS011;10675;47.976;7.824;2022-11-11T00:17:53;2.07;;;1.30;;
21032;SDS011;10675;47.976;7.824;2022-11-11T00:20:38;4.13;;;1.30;;
21032;SDS011;10675;47.976;7.824;2022-11-11T00:23:42;2.70;;;1.20;;
21032;SDS011;10675;47.976;7.824;2022-11-11T00:26:26;1.20;;;1.10;;
21032;SDS011;10675;47.976;7.824;2022-11-11T00:28:52;1.20;;;1.00;;
21032;SDS011;10675;47.976;7.824;2022-11-11T00:31:18;1.87;;;1.30;;
21032;SDS011;10675;47.976;7.824;2022-11-11T00:33:43;1.00;;;1.00;;
21032;SDS011;10675;47.976;7.824;2022-11-11T00:36:09;0.77;;;0.77;;
21032;SDS011;10675;47.976;7.824;2022-11-11T00:38:34;1.00;;;1.00;;
21032;SDS011;10675;47.976;7.824;2022-11-11T00:41:09;1.10;;;1.10;;
21032;SDS011;10675;47.976;7.824;2022-11-11T00:43:35;1.87;;;1.37;;
21032;SDS011;10675;47.976;7.824;2022-11-11T00:46:01;1.37;;;1.20;;
21032;SDS011;10675;47.976;7.824;2022-11-11T00:48:47;1.17;;;1.10;;
21032;SDS011;10675;47.976;7.824;2022-11-11T00:51:32;1.47;;;0.93;;
21032;SDS011;10675;47.976;7.824;2022-11-11T00:53:57;1.90;;;1.10;;
21032;SDS011;10675;47.976;7.824;2022-11-11T00:56:23;1.17;;;0.73;;
21032;SDS011;10675;47.976;7.824;2022-11-11T00:58:49;0.83;;;0.70;;
21032;SDS011;10675;47.976;7.824;2022-11-11T01:01:15;1.30;;;1.20;;
21032;SDS011;10675;47.976;7.824;2022-11-11T01:03:41;0.83;;;0.80;;
21032;SDS011;10675;47.976;7.824;2022-11-11T01:06:06;1.57;;;1.00;;
21032;SDS011;10675;47.976;7.824;2022-11-11T01:08:33;2.93;;;1.47;;
21032;SDS011;10675;47.976;7.824;2022-11-11T01:10:58;0.80;;;0.80;;
21032;SDS011;10675;47.976;7.824;2022-11-11T01:13:25;1.80;;;1.10;;
21032;SDS011;10675;47.976;7.824;2022-11-11T01:15:59;1.73;;;1.10;;
21032;SDS011;10675;47.976;7.824;2022-11-11T01:18:30;1.03;;;0.97;;
21032;SDS011;10675;47.976;7.824;2022-11-11T01:21:06;2.23;;;1.10;;
21032;SDS011;10675;47.976;7.824;2022-11-11T01:23:37;5.97;;;1.30;;
21032;SDS011;10675;47.976;7.824;2022-11-11T01:26:04;1.83;;;1.23;;
21032;SDS011;10675;47.976;7.824;2022-11-11T01:28:33;2.43;;;1.10;;
21032;SDS011;10675;47.976;7.824;2022-11-11T01:31:01;1.10;;;1.00;;
21032;SDS011;10675;47.976;7.824;2022-11-11T01:33:29;1.17;;;1.07;;
21032;SDS011;10675;47.976;7.824;2022-11-11T01:35:54;1.10;;;0.97;;
21032;SDS011;10675;47.976;7.824;2022-11-11T01:38:20;0.80;;;0.80;;
21032;SDS011;10675;47.976;7.824;2022-11-11T01:40:46;2.00;;;1.10;;
21032;SDS011;10675;47.976;7.824;2022-11-11T01:43:19;4.20;;;0.90;;
21032;SDS011;10675;47.976;7.824;2022-11-11T01:45:54;1.33;;;1.10;;
21032;SDS011;10675;47.976;7.824;2022-11-11T01:48:39;0.93;;;0.90;;
21032;SDS011;10675;47.976;7.824;2022-11-11T01:51:35;2.20;;;1.20;;
21032;SDS011;10675;47.976;7.824;2022-11-11T01:54:11;0.90;;;0.90;;
21032;SDS011;10675;47.976;7.824;2022-11-11T01:56:41;2.13;;;0.97;;
21032;SDS011;10675;47.976;7.824;2022-11-11T01:59:11;1.23;;;1.13;;
21032;SDS011;10675;47.976;7.824;2022-11-11T02:01:41;3.67;;;1.20;;
21032;SDS011;10675;47.976;7.824;2022-11-11T02:04:07;0.93;;;0.87;;
21032;SDS011;10675;47.976;7.824;2022-11-11T02:06:53;0.80;;;0.80;;
21032;SDS011;10675;47.976;7.824;2022-11-11T02:09:22;0.80;;;0.80;;
21032;SDS011;10675;47.976;7.824;2022-11-11T02:11:50;0.90;;;0.90;;
21032;SDS011;10675;47.976;7.824;2022-11-11T02:14:38;1.87;;;1.10;;
21032;SDS011;10675;47.976;7.824;2022-11-11T02:17:11;0.87;;;0.87;;
21032;SDS011;10675;47.976;7.824;2022-11-11T02:19:49;0.70;;;0.70;;
21032;SDS011;10675;47.976;7.824;2022-11-11T02:22:40;1.60;;;0.70;;
21032;SDS011;10675;47.976;7.824;2022-11-11T02:25:16;0.90;;;0.90;;
21032;SDS011;10675;47.976;7.824;2022-11-11T02:27:46;0.97;;;0.90;;
21032;SDS011;10675;47.976;7.824;2022-11-11T02:30:15;2.00;;;0.80;;
21032;SDS011;10675;47.976;7.824;2022-11-11T02:32:47;1.10;;;1.10;;
21032;SDS011;10675;47.976;7.824;2022-11-11T02:35:16;0.70;;;0.70;;
21032;SDS011;10675;47.976;7.824;2022-11-11T02:37:45;2.33;;;1.20;;
21032;SDS011;10675;47.976;7.824;2022-11-11T02:40:15;1.70;;;1.07;;
21032;SDS011;10675;47.976;7.824;2022-11-11T02:42:42;0.97;;;0.97;;
21032;SDS011;10675;47.976;7.824;2022-11-11T02:45:08;0.87;;;0.80;;
21032;SDS011;10675;47.976;7.824;2022-11-11T02:47:34;0.90;;;0.90;;
21032;SDS011;10675;47.976;7.824;2022-11-11T02:50:00;1.87;;;0.77;;
21032;SDS011;10675;47.976;7.824;2022-11-11T02:52:25;1.03;;;0.93;;
21032;SDS011;10675;47.976;7.824;2022-11-11T02:54:51;1.20;;;1.10;;
21032;SDS011;10675;47.976;7.824;2022-11-11T02:57:16;1.10;;;1.00;;
21032;SDS011;10675;47.976;7.824;2022-11-11T02:59:42;1.33;;;1.10;;
21032;SDS011;10675;47.976;7.824;2022-11-11T03:02:07;1.63;;;0.83;;
21032;SDS011;10675;47.976;7.824;2022-11-11T03:04:33;0.90;;;0.87;;
21032;SDS011;10675;47.976;7.824;2022-11-11T03:06:59;2.00;;;1.23;;
21032;SDS011;10675;47.976;7.824;2022-11-11T03:09:25;0.73;;;0.73;;
21032;SDS011;10675;47.976;7.824;2022-11-11T03:11:51;1.27;;;1.07;;
21032;SDS011;10675;47.976;7.824;2022-11-11T03:14:16;1.07;;;0.90;;
21032;SDS011;10675;47.976;7.824;2022-11-11T03:16:42;1.00;;;0.87;;
21032;SDS011;10675;47.976;7.824;2022-11-11T03:19:26;1.00;;;0.90;;
21032;SDS011;10675;47.976;7.824;2022-11-11T03:21:52;1.97;;;1.10;;
21032;SDS011;10675;47.976;7.824;2022-11-11T03:24:19;1.77;;;1.00;;
21032;SDS011;10675;47.976;7.824;2022-11-11T03:26:45;2.93;;;1.17;;
21032;SDS011;10675;47.976;7.824;2022-11-11T03:29:11;2.83;;;0.90;;
21032;SDS011;10675;47.976;7.824;2022-11-11T03:31:37;1.97;;;1.00;;
21032;SDS011;10675;47.976;7.824;2022-11-11T03:34:03;1.40;;;1.20;;
21032;SDS011;10675;47.976;7.824;2022-11-11T03:36:44;1.23;;;0.90;;
21032;SDS011;10675;47.976;7.824;2022-11-11T03:39:28;1.53;;;0.97;;
21032;SDS011;10675;47.976;7.824;2022-11-11T03:41:55;1.63;;;0.97;;
21032;SDS011;10675;47.976;7.824;2022-11-11T03:44:23;1.30;;;1.20;;
21032;SDS011;10675;47.976;7.824;2022-11-11T03:46:49;1.13;;;0.90;;
21032;SDS011;10675;47.976;7.824;2022-11-11T03:49:14;2.17;;;1.10;;
21032;SDS011;10675;47.976;7.824;2022-11-11T03:51:40;3.00;;;1.13;;
21032;SDS011;10675;47.976;7.824;2022-11-11T03:54:06;1.10;;;1.00;;
21032;SDS011;10675;47.976;7.824;2022-11-11T03:56:32;1.40;;;1.13;;
21032;SDS011;10675;47.976;7.824;2022-11-11T03:58:58;1.90;;;1.10;;
21032;SDS011;10675;47.976;7.824;2022-11-11T04:01:23;1.97;;;0.97;;
21032;SDS011;10675;47.976;7.824;2022-11-11T04:04:07;1.07;;;0.97;;
21032;SDS011;10675;47.976;7.824;2022-11-11T04:06:51;2.27;;;1.17;;
21032;SDS011;10675;47.976;7.824;2022-11-11T04:09:35;2.63;;;1.20;;
21032;SDS011;10675;47.976;7.824;2022-11-11T04:12:19;1.57;;;1.30;;
21032;SDS011;10675;47.976;7.824;2022-11-11T04:14:46;3.03;;;1.20;;
21032;SDS011;10675;47.976;7.824;2022-11-11T04:17:30;2.43;;;1.17;;
21032;SDS011;10675;47.976;7.824;2022-11-11T04:19:55;1.30;;;1.20;;
21032;SDS011;10675;47.976;7.824;2022-11-11T04:22:42;1.10;;;1.10;;
21032;SDS011;10675;47.976;7.824;2022-11-11T04:25:08;1.37;;;1.17;;
21032;SDS011;10675;47.976;7.824;2022-11-11T04:27:55;1.43;;;1.17;;
21032;SDS011;10675;47.976;7.824;2022-11-11T04:30:40;1.57;;;1.00;;
21032;SDS011;10675;47.976;7.824;2022-11-11T04:33:05;1.20;;;1.10;;
21032;SDS011;10675;47.976;7.824;2022-11-11T04:35:31;1.60;;;1.07;;
21032;SDS011;10675;47.976;7.824;2022-11-11T04:37:57;1.60;;;1.10;;
21032;SDS011;10675;47.976;7.824;2022-11-11T04:40:42;1.00;;;1.00;;
21032;SDS011;10675;47.976;7.824;2022-11-11T04:43:26;0.90;;;0.90;;
21032;SDS011;10675;47.976;7.824;2022-11-11T04:45:52;2.97;;;1.20;;
21032;SDS011;10675;47.976;7.824;2022-11-11T04:48:17;0.90;;;0.90;;
21032;SDS011;10675;47.976;7.824;2022-11-11T04:50:44;1.40;;;1.10;;
21032;SDS011;10675;47.976;7.824;2022-11-11T04:53:13;1.70;;;0.93;;
21032;SDS011;10675;47.976;7.824;2022-11-11T04:55:40;1.67;;;1.57;;
21032;SDS011;10675;47.976;7.824;2022-11-11T04:58:32;2.47;;;1.63;;
21032;SDS011;10675;47.976;7.824;2022-11-11T05:00:59;1.13;;;1.00;;
21032;SDS011;10675;47.976;7.824;2022-11-11T05:03:25;1.10;;;1.10;;
21032;SDS011;10675;47.976;7.824;2022-11-11T05:05:54;1.07;;;1.07;;
21032;SDS011;10675;47.976;7.824;2022-11-11T05:08:43;1.17;;;1.03;;
21032;SDS011;10675;47.976;7.824;2022-11-11T05:11:27;1.23;;;1.13;;
21032;SDS011;10675;47.976;7.824;2022-11-11T05:13:57;1.50;;;1.40;;
21032;SDS011;10675;47.976;7.824;2022-11-11T05:16:47;1.63;;;1.20;;
21032;SDS011;10675;47.976;7.824;2022-11-11T05:19:39;2.47;;;1.20;;
21032;SDS011;10675;47.976;7.824;2022-11-11T05:22:31;1.73;;;1.00;;
21032;SDS011;10675;47.976;7.824;2022-11-11T05:24:59;1.23;;;1.13;;
21032;SDS011;10675;47.976;7.824;2022-11-11T05:27:43;2.73;;;1.20;;
21032;SDS011;10675;47.976;7.824;2022-11-11T05:30:09;1.13;;;0.90;;
21032;SDS011;10675;47.976;7.824;2022-11-11T05:32:37;1.90;;;1.60;;
21032;SDS011;10675;47.976;7.824;2022-11-11T05:35:03;1.80;;;1.47;;
21032;SDS011;10675;47.976;7.824;2022-11-11T05:37:29;1.10;;;0.97;;
21032;SDS011;10675;47.976;7.824;2022-11-11T05:39:55;6.60;;;1.77;;
21032;SDS011;10675;47.976;7.824;2022-11-11T05:42:20;1.40;;;1.30;;
21032;SDS011;10675;47.976;7.824;2022-11-11T05:44:46;1.57;;;1.10;;
21032;SDS011;10675;47.976;7.824;2022-11-11T05:47:11;1.30;;;1.20;;
21032;SDS011;10675;47.976;7.824;2022-11-11T05:49:37;1.73;;;1.40;;
21032;SDS011;10675;47.976;7.824;2022-11-11T05:52:02;3.10;;;1.50;;
21032;SDS011;10675;47.976;7.824;2022-11-11T05:54:29;1.50;;;1.40;;
21032;SDS011;10675;47.976;7.824;2022-11-11T05:56:54;1.87;;;1.57;;
21032;SDS011;10675;47.976;7.824;2022-11-11T05:59:20;1.40;;;1.30;;
21032;SDS011;10675;47.976;7.824;2022-11-11T06:01:46;1.70;;;1.40;;
21032;SDS011;10675;47.976;7.824;2022-11-11T06:04:11;2.60;;;1.60;;
21032;SDS011;10675;47.976;7.824;2022-11-11T06:06:37;3.13;;;1.30;;
21032;SDS011;10675;47.976;7.824;2022-11-11T06:09:02;2.10;;;1.63;;
21032;SDS011;10675;47.976;7.824;2022-11-11T06:11:29;2.40;;;1.47;;
21032;SDS011;10675;47.976;7.824;2022-11-11T06:13:54;1.40;;;1.30;;
21032;SDS011;10675;47.976;7.824;2022-11-11T06:16:20;4.40;;;1.40;;
21032;SDS011;10675;47.976;7.824;2022-11-11T06:18:47;1.80;;;1.70;;
21032;SDS011;10675;47.976;7.824;2022-11-11T06:21:13;2.57;;;1.63;;
21032;SDS011;10675;47.976;7.824;2022-11-11T06:23:38;2.07;;;1.60;;
21032;SDS011;10675;47.976;7.824;2022-11-11T06:26:04;1.97;;;1.77;;
21032;SDS011;10675;47.976;7.824;2022-11-11T06:28:43;2.10;;;1.70;;
21032;SDS011;10675;47.976;7.824;2022-11-11T06:31:09;2.23;;;1.70;;
21032;SDS011;10675;47.976;7.824;2022-11-11T06:33:37;1.97;;;1.77;;
21032;SDS011;10675;47.976;7.824;2022-11-11T06:36:03;2.50;;;1.97;;
21032;SDS011;10675;47.976;7.824;2022-11-11T06:38:30;2.37;;;1.67;;
21032;SDS011;10675;47.976;7.824;2022-11-11T06:40:56;2.67;;;1.73;;
21032;SDS011;10675;47.976;7.824;2022-11-11T06:43:22;3.60;;;1.73;;
21032;SDS011;10675;47.976;7.824;2022-11-11T06:45:51;1.90;;;1.53;;
21032;SDS011;10675;47.976;7.824;2022-11-11T06:48:18;3.67;;;1.80;;
21032;SDS011;10675;47.976;7.824;2022-11-11T06:50:44;2.90;;;2.07;;
21032;SDS011;10675;47.976;7.824;2022-11-11T06:53:14;2.77;;;1.77;;
21032;SDS011;10675;47.976;7.824;2022-11-11T06:55:41;1.90;;;1.80;;
21032;SDS011;10675;47.976;7.824;2022-11-11T06:58:17;2.77;;;1.70;;
21032;SDS011;10675;47.976;7.824;2022-11-11T07:05:41;2.80;;;1.80;;
21032;SDS011;10675;47.976;7.824;2022-11-11T07:08:08;2.13;;;1.90;;
21032;SDS011;10675;47.976;7.824;2022-11-11T07:10:36;2.53;;;2.27;;
21032;SDS011;10675;47.976;7.824;2022-11-11T07:13:03;4.77;;;2.00;;
21032;SDS011;10675;47.976;7.824;2022-11-11T07:15:32;2.00;;;1.90;;
21032;SDS011;10675;47.976;7.824;2022-11-11T07:17:58;1.70;;;1.60;;
21032;SDS011;10675;47.976;7.824;2022-11-11T07:20:24;3.63;;;1.77;;
21032;SDS011;10675;47.976;7.824;2022-11-11T07:22:49;3.20;;;2.07;;
21032;SDS011;10675;47.976;7.824;2022-11-11T07:25:15;4.20;;;2.20;;
21032;SDS011;10675;47.976;7.824;2022-11-11T07:27:41;3.33;;;2.57;;
21032;SDS011;10675;47.976;7.824;2022-11-11T07:30:08;2.50;;;2.03;;
21032;SDS011;10675;47.976;7.824;2022-11-11T07:32:35;7.03;;;2.40;;
21032;SDS011;10675;47.976;7.824;2022-11-11T07:35:01;3.00;;;2.10;;
21032;SDS011;10675;47.976;7.824;2022-11-11T07:37:29;2.03;;;1.87;;
21032;SDS011;10675;47.976;7.824;2022-11-11T07:39:55;3.60;;;2.00;;
21032;SDS011;10675;47.976;7.824;2022-11-11T07:42:20;2.07;;;1.97;;
21032;SDS011;10675;47.976;7.824;2022-11-11T07:44:46;2.83;;;2.30;;
21032;SDS011;10675;47.976;7.824;2022-11-11T07:47:12;2.57;;;2.37;;
21032;SDS011;10675;47.976;7.824;2022-11-11T07:49:37;4.50;;;2.80;;
21032;SDS011;10675;47.976;7.824;2022-11-11T07:52:03;3.23;;;2.93;;
21032;SDS011;10675;47.976;7.824;2022-11-11T07:54:29;4.10;;;3.33;;
21032;SDS011;10675;47.976;7.824;2022-11-11T07:56:55;2.80;;;2.60;;
21032;SDS011;10675;47.976;7.824;2022-11-11T07:59:20;4.43;;;3.23;;
21032;SDS011;10675;47.976;7.824;2022-11-11T08:01:46;2.80;;;2.47;;
21032;SDS011;10675;47.976;7.824;2022-11-11T08:04:11;3.43;;;2.30;;
21032;SDS011;10675;47.976;7.824;2022-11-11T08:06:37;2.90;;;2.13;;
21032;SDS011;10675;47.976;7.824;2022-11-11T08:09:03;6.77;;;2.70;;
21032;SDS011;10675;47.976;7.824;2022-11-11T08:11:28;3.77;;;2.50;;
21032;SDS011;10675;47.976;7.824;2022-11-11T08:14:12;4.77;;;2.40;;
21032;SDS011;10675;47.976;7.824;2022-11-11T08:16:38;4.90;;;2.93;;
21032;SDS011;10675;47.976;7.824;2022-11-11T08:19:03;5.63;;;3.00;;
21032;SDS011;10675;47.976;7.824;2022-11-11T08:21:29;4.90;;;2.70;;
21032;SDS011;10675;47.976;7.824;2022-11-11T08:23:54;5.23;;;3.07;;
21032;SDS011;10675;47.976;7.824;2022-11-11T08:26:20;3.27;;;2.40;;
21032;SDS011;10675;47.976;7.824;2022-11-11T08:28:47;3.47;;;2.30;;
21032;SDS011;10675;47.976;7.824;2022-11-11T08:31:13;3.87;;;2.73;;
21032;SDS011;10675;47.976;7.824;2022-11-11T08:33:39;1.93;;;1.83;;
21032;SDS011;10675;47.976;7.824;2022-11-11T08:36:04;2.20;;;1.57;;
21032;SDS011;10675;47.976;7.824;2022-11-11T08:38:32;7.27;;;1.90;;
21032;SDS011;10675;47.976;7.824;2022-11-11T08:40:59;4.47;;;1.70;;
21032;SDS011;10675;47.976;7.824;2022-11-11T08:43:25;2.17;;;1.83;;
21032;SDS011;10675;47.976;7.824;2022-11-11T08:45:51;1.63;;;1.53;;
21032;SDS011;10675;47.976;7.824;2022-11-11T08:48:17;3.43;;;2.33;;
21032;SDS011;10675;47.976;7.824;2022-11-11T08:50:43;2.83;;;2.23;;
21032;SDS011;10675;47.976;7.824;2022-11-11T08:53:09;3.07;;;2.23;;
21032;SDS011;10675;47.976;7.824;2022-11-11T08:55:35;3.07;;;2.50;;
21032;SDS011;10675;47.976;7.824;2022-11-11T08:58:02;3.23;;;2.63;;
21032;SDS011;10675;47.976;7.824;2022-11-11T09:00:31;2.93;;;2.63;;
21032;SDS011;10675;47.976;7.824;2022-11-11T09:03:01;4.20;;;2.87;;
21032;SDS011;10675;47.976;7.824;2022-11-11T09:05:28;4.50;;;3.10;;
21032;SDS011;10675;47.976;7.824;2022-11-11T09:07:54;3.20;;;2.90;;
21032;SDS011;10675;47.976;7.824;2022-11-11T09:10:20;4.37;;;3.20;;
21032;SDS011;10675;47.976;7.824;2022-11-11T09:12:45;3.60;;;3.00;;
21032;SDS011;10675;47.976;7.824;2022-11-11T09:15:11;4.73;;;3.57;;
21032;SDS011;10675;47.976;7.824;2022-11-11T09:17:36;3.53;;;3.13;;
21032;SDS011;10675;47.976;7.824;2022-11-11T09:20:02;4.30;;;2.90;;
21032;SDS011;10675;47.976;7.824;2022-11-11T09:22:28;4.53;;;3.10;;
21032;SDS011;10675;47.976;7.824;2022-11-11T09:24:54;3.20;;;2.90;;
21032;SDS011;10675;47.976;7.824;2022-11-11T09:27:20;3.77;;;2.60;;
21032;SDS011;10675;47.976;7.824;2022-11-11T09:29:46;3.87;;;2.53;;
21032;SDS011;10675;47.976;7.824;2022-11-11T09:32:11;4.17;;;2.73;;
21032;SDS011;10675;47.976;7.824;2022-11-11T09:34:37;3.13;;;2.77;;
21032;SDS011;10675;47.976;7.824;2022-11-11T09:37:02;3.10;;;2.47;;
21032;SDS011;10675;47.976;7.824;2022-11-11T09:39:28;4.10;;;3.10;;
21032;SDS011;10675;47.976;7.824;2022-11-11T09:41:56;4.13;;;2.77;;
21032;SDS011;10675;47.976;7.824;2022-11-11T09:50:10;3.40;;;3.00;;
21032;SDS011;10675;47.976;7.824;2022-11-11T09:52:45;6.40;;;2.93;;
21032;SDS011;10675;47.976;7.824;2022-11-11T09:55:20;3.47;;;2.60;;
21032;SDS011;10675;47.976;7.824;2022-11-11T10:00:24;3.83;;;2.53;;
21032;SDS011;10675;47.976;7.824;2022-11-11T10:02:54;6.63;;;3.33;;
21032;SDS011;10675;47.976;7.824;2022-11-11T10:08:19;5.97;;;4.07;;
21032;SDS011;10675;47.976;7.824;2022-11-11T10:10:51;5.20;;;2.70;;
21032;SDS011;10675;47.976;7.824;2022-11-11T10:13:28;5.03;;;3.17;;
21032;SDS011;10675;47.976;7.824;2022-11-11T10:16:16;4.97;;;2.53;;
21032;SDS011;10675;47.976;7.824;2022-11-11T10:18:51;3.00;;;2.40;;
21032;SDS011;10675;47.976;7.824;2022-11-11T10:21:36;3.73;;;2.97;;
21032;SDS011;10675;47.976;7.824;2022-11-11T10:24:17;3.37;;;2.60;;
21032;SDS011;10675;47.976;7.824;2022-11-11T10:26:52;3.93;;;2.80;;
21032;SDS011;10675;47.976;7.824;2022-11-11T10:29:18;3.80;;;2.70;;
21032;SDS011;10675;47.976;7.824;2022-11-11T10:31:46;2.87;;;2.40;;
21032;SDS011;10675;47.976;7.824;2022-11-11T10:34:32;3.80;;;2.97;;
21032;SDS011;10675;47.976;7.824;2022-11-11T10:36:58;2.77;;;2.50;;
21032;SDS011;10675;47.976;7.824;2022-11-11T10:42:14;3.17;;;2.77;;
21032;SDS011;10675;47.976;7.824;2022-11-11T10:44:41;3.53;;;2.53;;
21032;SDS011;10675;47.976;7.824;2022-11-11T10:50:23;3.90;;;2.67;;
21032;SDS011;10675;47.976;7.824;2022-11-11T10:52:45;3.53;;;2.53;;
21032;SDS011;10675;47.976;7.824;2022-11-11T10:55:23;4.57;;;3.00;;
21032;SDS011;10675;47.976;7.824;2022-11-11T10:57:57;5.13;;;2.80;;
21032;SDS011;10675;47.976;7.824;2022-11-11T11:00:31;4.17;;;2.83;;
21032;SDS011;10675;47.976;7.824;2022-11-11T11:05:41;3.23;;;2.63;;
21032;SDS011;10675;47.976;7.824;2022-11-11T11:08:22;2.33;;;2.00;;
21032;SDS011;10675;47.976;7.824;2022-11-11T11:10:55;2.60;;;2.40;;
21032;SDS011;10675;47.976;7.824;2022-11-11T11:13:33;4.60;;;2.60;;
21032;SDS011;10675;47.976;7.824;2022-11-11T11:16:08;3.43;;;2.13;;
21032;SDS011;10675;47.976;7.824;2022-11-11T11:18:39;3.80;;;2.53;;
21032;SDS011;10675;47.976;7.824;2022-11-11T11:21:05;4.43;;;2.67;;
21032;SDS011;10675;47.976;7.824;2022-11-11T11:23:36;2.50;;;2.30;;
21032;SDS011;10675;47.976;7.824;2022-11-11T11:26:07;4.30;;;2.93;;
21032;SDS011;10675;47.976;7.824;2022-11-11T11:28:34;3.13;;;2.40;;
21032;SDS011;10675;47.976;7.824;2022-11-11T11:33:27;4.10;;;2.53;;
21032;SDS011;10675;47.976;7.824;2022-11-11T11:36:17;4.47;;;2.57;;
21032;SDS011;10675;47.976;7.824;2022-11-11T11:38:44;5.13;;;2.57;;
21032;SDS011;10675;47.976;7.824;2022-11-11T11:41:11;4.20;;;2.77;;
21032;SDS011;10675;47.976;7.824;2022-11-11T11:43:38;2.87;;;2.57;;
21032;SDS011;10675;47.976;7.824;2022-11-11T12:06:32;4.23;;;2.77;;
21032;SDS011;10675;47.976;7.824;2022-11-11T12:14:52;2.80;;;2.30;;
21032;SDS011;10675;47.976;7.824;2022-11-11T12:20:28;5.80;;;2.30;;
21032;SDS011;10675;47.976;7.824;2022-11-11T12:23:13;2.63;;;1.90;;
21032;SDS011;10675;47.976;7.824;2022-11-11T12:28:32;4.87;;;2.03;;
21032;SDS011;10675;47.976;7.824;2022-11-11T12:41:42;7.57;;;2.53;;
21032;SDS011;10675;47.976;7.824;2022-11-11T12:44:10;6.90;;;2.47;;
21032;SDS011;10675;47.976;7.824;2022-11-11T12:57:34;4.33;;;2.63;;
21032;SDS011;10675;47.976;7.824;2022-11-11T13:00:08;3.23;;;2.53;;
21032;SDS011;10675;47.976;7.824;2022-11-11T13:05:28;2.70;;;2.23;;
21032;SDS011;10675;47.976;7.824;2022-11-11T13:08:06;4.07;;;2.40;;
21032;SDS011;10675;47.976;7.824;2022-11-11T13:11:06;4.13;;;2.23;;
21032;SDS011;10675;47.976;7.824;2022-11-11T13:13:48;3.03;;;1.63;;
21032;SDS011;10675;47.976;7.824;2022-11-11T13:16:23;5.87;;;1.80;;
21032;SDS011;10675;47.976;7.824;2022-11-11T13:18:50;3.00;;;1.57;;
21032;SDS011;10675;47.976;7.824;2022-11-11T13:22:07;3.17;;;1.93;;
21032;SDS011;10675;47.976;7.824;2022-11-11T13:24:21;3.20;;;1.93;;
21032;SDS011;10675;47.976;7.824;2022-11-11T13:26:48;2.07;;;1.83;;
21032;SDS011;10675;47.976;7.824;2022-11-11T13:29:44;2.80;;;1.60;;
21032;SDS011;10675;47.976;7.824;2022-11-11T13:32:34;2.43;;;1.80;;
21032;SDS011;10675;47.976;7.824;2022-11-11T13:35:10;1.87;;;1.60;;
21032;SDS011;10675;47.976;7.824;2022-11-11T13:37:45;1.70;;;1.33;;
21032;SDS011;10675;47.976;7.824;2022-11-11T13:40:22;4.73;;;1.57;;
21032;SDS011;10675;47.976;7.824;2022-11-11T13:43:05;1.20;;;1.10;;
21032;SDS011;10675;47.976;7.824;2022-11-11T13:45:49;2.03;;;1.50;;
21032;SDS011;10675;47.976;7.824;2022-11-11T13:48:27;1.90;;;1.57;;
21032;SDS011;10675;47.976;7.824;2022-11-11T13:54:18;7.00;;;2.47;;
21032;SDS011;10675;47.976;7.824;2022-11-11T13:57:03;4.57;;;2.17;;
21032;SDS011;10675;47.976;7.824;2022-11-11T13:59:41;7.23;;;3.23;;
21032;SDS011;10675;47.976;7.824;2022-11-11T14:10:08;5.87;;;3.70;;
21032;SDS011;10675;47.976;7.824;2022-11-11T14:12:54;6.17;;;3.53;;
21032;SDS011;10675;47.976;7.824;2022-11-11T14:15:38;6.20;;;4.17;;
21032;SDS011;10675;47.976;7.824;2022-11-11T14:20:50;3.17;;;2.43;;
21032;SDS011;10675;47.976;7.824;2022-11-11T14:25:46;4.20;;;2.50;;
21032;SDS011;10675;47.976;7.824;2022-11-11T14:30:51;4.13;;;2.40;;
21032;SDS011;10675;47.976;7.824;2022-11-11T14:36:16;6.07;;;2.60;;
21032;SDS011;10675;47.976;7.824;2022-11-11T14:41:59;3.10;;;1.87;;
21032;SDS011;10675;47.976;7.824;2022-11-11T14:49:47;5.27;;;2.70;;
21032;SDS011;10675;47.976;7.824;2022-11-11T14:52:22;2.67;;;2.43;;
21032;SDS011;10675;47.976;7.824;2022-11-11T14:54:58;3.63;;;2.53;;
21032;SDS011;10675;47.976;7.824;2022-11-11T14:58:09;4.13;;;2.57;;
21032;SDS011;10675;47.976;7.824;2022-11-11T15:00:30;3.20;;;2.30;;
21032;SDS011;10675;47.976;7.824;2022-11-11T15:03:11;3.47;;;2.47;;
21032;SDS011;10675;47.976;7.824;2022-11-11T15:05:51;3.30;;;2.47;;
21032;SDS011;10675;47.976;7.824;2022-11-11T15:11:38;4.87;;;2.63;;
21032;SDS011;10675;47.976;7.824;2022-11-11T15:14:20;8.27;;;3.63;;
21032;SDS011;10675;47.976;7.824;2022-11-11T15:19:47;10.43;;;3.40;;
21032;SDS011;10675;47.976;7.824;2022-11-11T15:27:52;4.43;;;2.13;;
21032;SDS011;10675;47.976;7.824;2022-11-11T15:39:16;8.20;;;5.60;;
21032;SDS011;10675;47.976;7.824;2022-11-11T15:41:46;10.97;;;8.43;;
21032;SDS011;10675;47.976;7.824;2022-11-11T15:44:16;12.37;;;9.40;;
21032;SDS011;10675;47.976;7.824;2022-11-11T15:46:47;19.73;;;12.13;;
21032;SDS011;10675;47.976;7.824;2022-11-11T15:49:14;25.33;;;16.20;;
21032;SDS011;10675;47.976;7.824;2022-11-11T15:51:58;22.27;;;13.73;;
21032;SDS011;10675;47.976;7.824;2022-11-11T15:54:24;17.17;;;10.90;;
21032;SDS011;10675;47.976;7.824;2022-11-11T15:56:50;15.37;;;10.10;;
21032;SDS011;10675;47.976;7.824;2022-11-11T15:59:24;15.43;;;9.90;;
21032;SDS011;10675;47.976;7.824;2022-11-11T16:01:55;17.37;;;10.30;;
21032;SDS011;10675;47.976;7.824;2022-11-11T16:04:22;12.23;;;8.80;;
21032;SDS011;10675;47.976;7.824;2022-11-11T16:06:48;12.97;;;6.17;;
21032;SDS011;10675;47.976;7.824;2022-11-11T16:09:17;10.33;;;7.17;;
21032;SDS011;10675;47.976;7.824;2022-11-11T16:11:48;12.33;;;6.77;;
21032;SDS011;10675;47.976;7.824;2022-11-11T16:14:22;8.27;;;5.43;;
21032;SDS011;10675;47.976;7.824;2022-11-11T16:16:54;10.27;;;5.38;;
21032;SDS011;10675;47.976;7.824;2022-11-11T16:24:34;6.83;;;3.33;;
21032;SDS011;10675;47.976;7.824;2022-11-11T16:27:05;6.13;;;3.47;;
21032;SDS011;10675;47.976;7.824;2022-11-11T16:29:32;3.83;;;3.23;;
21032;SDS011;10675;47.976;7.824;2022-11-11T16:35:01;7.27;;;4.67;;
21032;SDS011;10675;47.976;7.824;2022-11-11T16:37:50;6.77;;;3.97;;
21032;SDS011;10675;47.976;7.824;2022-11-11T16:40:27;6.00;;;4.00;;
21032;SDS011;10675;47.976;7.824;2022-11-11T16:45:50;6.73;;;3.83;;
21032;SDS011;10675;47.976;7.824;2022-11-11T16:51:07;10.60;;;4.90;;
21032;SDS011;10675;47.976;7.824;2022-11-11T16:53:40;5.57;;;4.10;;
21032;SDS011;10675;47.976;7.824;2022-11-11T16:56:13;8.27;;;4.82;;
21032;SDS011;10675;47.976;7.824;2022-11-11T16:59:01;4.43;;;3.30;;
21032;SDS011;10675;47.976;7.824;2022-11-11T17:01:30;4.67;;;3.13;;
21032;SDS011;10675;47.976;7.824;2022-11-11T17:04:05;6.67;;;3.20;;
21032;SDS011;10675;47.976;7.824;2022-11-11T17:06:44;4.90;;;3.43;;
21032;SDS011;10675;47.976;7.824;2022-11-11T17:09:39;7.03;;;3.70;;
21032;SDS011;10675;47.976;7.824;2022-11-11T17:12:06;5.70;;;3.77;;
21032;SDS011;10675;47.976;7.824;2022-11-11T17:14:33;5.63;;;3.50;;
21032;SDS011;10675;47.976;7.824;2022-11-11T17:17:01;7.47;;;4.23;;
21032;SDS011;10675;47.976;7.824;2022-11-11T17:19:28;5.73;;;3.90;;
21032;SDS011;10675;47.976;7.824;2022-11-11T17:22:03;4.77;;;3.37;;
21032;SDS011;10675;47.976;7.824;2022-11-11T17:24:29;5.03;;;3.03;;
21032;SDS011;10675;47.976;7.824;2022-11-11T17:26:55;5.13;;;3.30;;
21032;SDS011;10675;47.976;7.824;2022-11-11T17:29:20;3.83;;;2.93;;
21032;SDS011;10675;47.976;7.824;2022-11-11T17:31:46;4.20;;;2.93;;
21032;SDS011;10675;47.976;7.824;2022-11-11T17:34:11;4.93;;;3.17;;
21032;SDS011;10675;47.976;7.824;2022-11-11T17:36:37;4.37;;;2.73;;
21032;SDS011;10675;47.976;7.824;2022-11-11T17:39:02;3.83;;;2.83;;